Time;durP1;ratioP1;P1;durP2;ratioP2;P2;SDS_P1;SDS_P2;PMS_P1;PMS_P2;Temp;Humidity;BMP_temperature;BMP_pressure;BME280_temperature;BME280_humidity;BME280_pressure;Samples;Min_cycle;Max_cycle;Signal;HPM_P1;HPM_P2
2021/04/27 00:00:16;;;;;;;84.35;77.88;;;19.40;99.90;;;;;;5075825;28;20146;-66
2021/04/27 00:02:44;;;;;;;97.45;89.25;;;19.50;99.90;;;;;;5075735;28;20021;-67
2021/04/27 00:05:15;;;;;;;91.28;83.70;;;19.50;99.90;;;;;;5075639;28;20047;-68
2021/04/27 00:07:44;;;;;;;73.18;66.85;;;19.60;99.90;;;;;;5075649;28;20473;-69
2021/04/27 00:10:14;;;;;;;87.65;79.80;;;19.70;99.90;;;;;;5075719;28;20024;-67
2021/04/27 00:12:41;;;;;;;71.80;65.90;;;19.90;99.90;;;;;;5075714;28;20032;-65
2021/04/27 00:15:18;;;;;;;68.13;62.42;;;19.90;99.90;;;;;;5075554;28;20749;-66
2021/04/27 00:17:46;;;;;;;69.22;63.25;;;19.90;99.90;;;;;;5075422;28;20025;-65
2021/04/27 00:20:14;;;;;;;77.15;70.75;;;20.10;99.90;;;;;;5075418;28;20025;-66
2021/04/27 00:22:42;;;;;;;57.83;52.45;;;20.20;99.90;;;;;;5075574;28;20028;-65
2021/04/27 00:25:10;;;;;;;66.93;61.28;;;20.10;99.90;;;;;;5075362;28;20016;-65
2021/04/27 00:27:37;;;;;;;52.97;48.60;;;20.30;99.90;;;;;;5075368;28;20056;-65
2021/04/27 00:30:09;;;;;;;53.40;48.97;;;20.20;99.90;;;;;;5075327;28;20016;-67
2021/04/27 00:32:37;;;;;;;51.28;47.15;;;20.00;99.90;;;;;;5075229;28;20446;-67
2021/04/27 00:35:04;;;;;;;48.72;44.63;;;20.00;99.90;;;;;;5075289;28;20028;-68
2021/04/27 00:37:32;;;;;;;48.33;44.50;;;19.90;99.90;;;;;;5075449;28;20028;-66
2021/04/27 00:39:59;;;;;;;49.72;45.78;;;19.90;99.90;;;;;;5075174;28;20055;-65
2021/04/27 00:42:35;;;;;;;53.03;48.17;;;20.10;99.90;;;;;;5075169;28;20035;-67
2021/04/27 00:45:04;;;;;;;53.17;48.60;;;20.30;99.90;;;;;;5075071;28;20396;-66
2021/04/27 00:47:31;;;;;;;48.15;44.08;;;20.10;99.90;;;;;;5075064;28;20029;-68
2021/04/27 00:49:58;;;;;;;42.70;39.10;;;20.00;99.90;;;;;;5074963;28;20025;-68
2021/04/27 00:52:26;;;;;;;40.78;37.47;;;20.20;99.90;;;;;;5074889;28;20502;-68
2021/04/27 00:54:53;;;;;;;42.70;38.92;;;20.50;99.90;;;;;;5074888;28;20032;-66
2021/04/27 00:57:21;;;;;;;44.63;40.53;;;20.80;99.90;;;;;;5074819;28;20024;-67
2021/04/27 00:59:49;;;;;;;39.60;36.50;;;20.90;99.90;;;;;;5074678;28;20427;-64
2021/04/27 01:02:16;;;;;;;33.80;31.17;;;21.00;99.90;;;;;;5074839;28;20161;-68
2021/04/27 01:04:44;;;;;;;28.48;26.45;;;21.30;99.90;;;;;;5074636;28;20013;-66
2021/04/27 01:07:15;;;;;;;26.75;24.55;;;21.60;99.90;;;;;;5074695;28;20021;-68
2021/04/27 01:09:51;;;;;;;28.83;26.55;;;21.90;99.90;;;;;;5074526;28;20039;-69
2021/04/27 01:12:28;;;;;;;26.33;24.23;;;22.00;99.90;;;;;;5074279;28;20028;-69
2021/04/27 01:15:16;;;;;;;24.20;22.30;;;22.10;99.90;;;;;;5074422;28;20024;-67
2021/04/27 01:17:46;;;;;;;33.03;30.23;;;22.20;99.90;;;;;;5074277;28;20052;-66
2021/04/27 01:20:23;;;;;;;19.70;18.00;;;22.30;99.90;;;;;;5074335;28;20381;-65
2021/04/27 01:23:03;;;;;;;31.88;28.92;;;22.30;99.90;;;;;;5073361;28;20086;-66
2021/04/27 01:25:58;;;;;;;35.05;31.75;;;22.30;99.90;;;;;;5074230;28;20023;-67
2021/04/27 01:28:27;;;;;;;36.15;32.88;;;21.80;99.90;;;;;;5073829;28;20033;-65
2021/04/27 01:30:55;;;;;;;37.97;34.47;;;21.60;99.90;;;;;;5074032;28;20028;-64
2021/04/27 01:33:27;;;;;;;36.45;33.00;;;21.70;99.90;;;;;;5074021;28;20025;-66
2021/04/27 01:35:56;;;;;;;36.40;33.15;;;21.40;99.90;;;;;;5072756;28;20154;-67
2021/04/27 01:38:24;;;;;;;35.30;31.98;;;21.10;99.90;;;;;;5073722;28;20044;-68
2021/04/27 01:40:53;;;;;;;34.22;31.02;;;21.20;99.90;;;;;;5073713;28;20052;-67
2021/04/27 01:43:22;;;;;;;21.05;19.00;;;21.30;99.90;;;;;;5073934;28;20385;-68
2021/04/27 01:45:54;;;;;;;20.77;18.83;;;21.50;99.90;;;;;;5073615;28;20020;-68
2021/04/27 01:48:22;;;;;;;22.42;20.42;;;21.30;99.90;;;;;;5073706;28;20028;-65
2021/04/27 01:50:50;;;;;;;22.77;20.60;;;21.20;99.90;;;;;;5073700;28;20031;-66
2021/04/27 01:53:18;;;;;;;22.77;20.50;;;20.90;99.90;;;;;;5073509;28;20103;-64
2021/04/27 01:55:45;;;;;;;20.27;18.27;;;20.70;99.90;;;;;;5073363;28;20017;-68
2021/04/27 01:58:13;;;;;;;21.10;19.10;;;20.70;99.90;;;;;;5073608;28;20024;-65
2021/04/27 02:00:40;;;;;;;47.75;25.27;;;20.60;99.90;;;;;;5073189;28;20024;-64
2021/04/27 02:03:08;;;;;;;27.10;21.75;;;20.50;99.90;;;;;;5073173;28;20025;-64
2021/04/27 02:05:36;;;;;;;21.08;19.27;;;20.60;99.90;;;;;;5073413;28;20384;-63
2021/04/27 02:08:04;;;;;;;20.13;18.20;;;21.00;99.90;;;;;;5073303;28;20024;-65
2021/04/27 02:10:31;;;;;;;22.85;20.70;;;21.50;99.90;;;;;;5073394;28;20036;-64
2021/04/27 02:13:06;;;;;;;21.67;19.55;;;21.80;99.90;;;;;;5071909;28;20036;-64
2021/04/27 02:15:34;;;;;;;19.73;17.85;;;21.40;99.90;;;;;;5073202;28;20031;-65
2021/04/27 02:18:25;;;;;;;19.17;17.45;;;21.20;99.90;;;;;;5073189;28;20025;-63
2021/04/27 02:20:54;;;;;;;97.10;30.10;;;21.30;99.90;;;;;;5072586;28;20020;-63
2021/04/27 02:23:21;;;;;;;19.67;17.85;;;21.50;99.90;;;;;;5073481;28;20419;-63
2021/04/27 02:25:53;;;;;;;19.48;17.77;;;21.40;99.90;;;;;;5073180;28;20096;-63
2021/04/27 02:28:21;;;;;;;19.40;17.65;;;21.10;99.90;;;;;;5073208;28;20103;-64
2021/04/27 02:30:49;;;;;;;18.67;16.98;;;21.40;99.90;;;;;;5072874;28;20039;-65
2021/04/27 02:33:17;;;;;;;19.00;17.30;;;21.40;99.90;;;;;;5073078;28;20157;-64
2021/04/27 02:35:44;;;;;;;17.73;16.08;;;21.60;99.90;;;;;;5073312;28;20109;-65
2021/04/27 02:38:12;;;;;;;24.00;17.80;;;22.00;99.90;;;;;;5073023;28;20043;-63
2021/04/27 02:40:41;;;;;;;18.30;16.58;;;22.00;99.90;;;;;;5072968;28;20036;-63
2021/04/27 02:43:08;;;;;;;17.42;16.02;;;21.60;99.90;;;;;;5072820;28;20031;-64
2021/04/27 02:45:36;;;;;;;17.38;15.68;;;21.80;99.90;;;;;;5072851;28;20029;-64
2021/04/27 02:48:12;;;;;;;16.38;14.75;;;22.30;99.90;;;;;;5072833;28;20048;-64
2021/04/27 02:50:43;;;;;;;16.05;14.63;;;22.30;99.90;;;;;;5073059;28;20020;-64
2021/04/27 02:53:11;;;;;;;16.42;14.75;;;22.50;99.90;;;;;;5072875;28;20473;-63
2021/04/27 02:55:39;;;;;;;16.65;15.15;;;22.60;99.90;;;;;;5072960;28;20074;-64
2021/04/27 02:58:07;;;;;;;16.58;15.02;;;22.70;99.40;;;;;;5072737;28;20080;-65
2021/04/27 03:00:35;;;;;;;16.92;15.23;;;23.00;99.90;;;;;;5072864;28;20475;-64
2021/04/27 03:03:02;;;;;;;17.00;15.25;;;23.30;99.90;;;;;;5072566;28;20079;-68
2021/04/27 03:05:30;;;;;;;21.85;16.05;;;23.30;99.10;;;;;;5072733;28;20020;-67
2021/04/27 03:07:58;;;;;;;17.58;15.95;;;23.10;99.60;;;;;;5072726;28;20032;-67
2021/04/27 03:10:25;;;;;;;17.27;15.70;;;22.90;99.90;;;;;;5072822;28;20500;-68
2021/04/27 03:12:53;;;;;;;19.80;17.98;;;22.90;99.90;;;;;;5072643;28;20059;-70
2021/04/27 03:15:20;;;;;;;19.83;18.02;;;23.10;99.90;;;;;;5072711;28;20036;-69
2021/04/27 03:17:48;;;;;;;19.23;17.25;;;23.30;99.90;;;;;;5072545;28;20024;-67
2021/04/27 03:20:16;;;;;;;20.88;18.77;;;23.60;99.80;;;;;;5072805;28;20017;-69
2021/04/27 03:22:43;;;;;;;22.90;20.73;;;23.70;99.80;;;;;;5072562;28;20021;-69
2021/04/27 03:25:13;;;;;;;29.52;26.50;;;23.30;99.90;;;;;;5072667;28;20021;-68
2021/04/27 03:27:41;;;;;;;39.13;35.03;;;23.10;99.90;;;;;;5072660;28;20025;-69
2021/04/27 03:30:10;;;;;;;40.80;36.88;;;23.10;99.90;;;;;;5072910;28;20500;-68
2021/04/27 03:32:38;;;;;;;41.28;37.38;;;23.20;99.90;;;;;;5075995;28;20016;-68
2021/04/27 03:35:11;;;;;;;44.50;40.40;;;23.40;99.90;;;;;;5076385;28;20059;-69
2021/04/27 03:37:39;;;;;;;45.65;41.28;;;23.30;99.90;;;;;;5076250;28;20056;-66
2021/04/27 03:40:09;;;;;;;45.65;41.45;;;23.40;99.90;;;;;;5076236;28;20060;-69
2021/04/27 03:42:37;;;;;;;44.55;39.78;;;23.40;99.90;;;;;;5076359;28;20017;-66
2021/04/27 03:45:07;;;;;;;44.15;40.15;;;23.30;99.90;;;;;;5076194;28;20358;-67
2021/04/27 03:47:34;;;;;;;48.37;43.83;;;23.30;99.90;;;;;;5076053;28;20366;-70
2021/04/27 03:50:04;;;;;;;45.63;41.03;;;23.30;99.90;;;;;;5076104;28;20303;-69
2021/04/27 03:52:31;;;;;;;41.97;37.80;;;23.30;99.90;;;;;;5076022;28;20056;-73
2021/04/27 03:54:58;;;;;;;49.10;39.60;;;23.20;99.90;;;;;;5076014;28;20030;-72
2021/04/27 03:57:26;;;;;;;41.20;37.47;;;23.00;99.90;;;;;;5074606;28;20085;-70
2021/04/27 03:59:54;;;;;;;38.85;35.08;;;23.20;99.90;;;;;;5075884;28;20031;-67
2021/04/27 04:02:21;;;;;;;40.72;36.50;;;23.10;99.90;;;;;;5076049;28;20188;-65
2021/04/27 04:04:49;;;;;;;37.88;34.47;;;23.00;99.90;;;;;;5075606;28;20043;-66
2021/04/27 04:07:16;;;;;;;39.00;35.40;;;23.10;99.90;;;;;;5075658;28;20024;-65
2021/04/27 04:09:43;;;;;;;47.17;36.50;;;23.20;99.90;;;;;;5075617;28;20017;-66
2021/04/27 04:12:11;;;;;;;39.97;35.90;;;22.90;99.90;;;;;;5075607;28;20032;-67
2021/04/27 04:14:38;;;;;;;39.65;35.25;;;23.10;99.90;;;;;;5075531;28;20029;-65
2021/04/27 04:17:06;;;;;;;35.40;32.10;;;23.10;99.90;;;;;;5075530;28;20381;-66
2021/04/27 04:19:34;;;;;;;36.50;32.90;;;22.90;99.90;;;;;;5074342;28;20415;-66
2021/04/27 04:22:02;;;;;;;37.63;33.85;;;22.90;99.90;;;;;;5075433;28;20032;-64
2021/04/27 04:24:29;;;;;;;37.40;33.75;;;22.60;99.90;;;;;;5075542;28;20021;-66
2021/04/27 04:26:57;;;;;;;37.45;34.03;;;22.70;99.90;;;;;;5075428;28;20029;-66
2021/04/27 04:29:25;;;;;;;39.13;35.42;;;22.70;99.90;;;;;;5075348;28;20028;-66
2021/04/27 04:31:53;;;;;;;74.95;40.75;;;22.80;99.90;;;;;;5075282;28;20033;-66
2021/04/27 04:34:21;;;;;;;40.53;33.55;;;22.70;99.90;;;;;;5075287;28;20024;-67
2021/04/27 04:36:49;;;;;;;37.83;32.97;;;22.60;99.90;;;;;;5075088;28;20571;-66
2021/04/27 04:39:16;;;;;;;36.17;32.67;;;22.60;99.90;;;;;;5075082;28;20060;-67
2021/04/27 04:41:44;;;;;;;36.38;32.80;;;22.20;99.90;;;;;;5075076;28;20025;-64
2021/04/27 04:44:11;;;;;;;43.15;33.45;;;22.20;99.90;;;;;;5074441;28;20024;-65
2021/04/27 04:46:39;;;;;;;33.88;30.35;;;22.10;99.90;;;;;;5075018;28;20029;-66
2021/04/27 04:49:07;;;;;;;36.85;32.92;;;22.00;99.90;;;;;;5075057;28;20385;-66
2021/04/27 04:51:34;;;;;;;35.05;31.30;;;21.80;99.90;;;;;;5075041;28;20021;-66
2021/04/27 04:54:01;;;;;;;41.05;32.08;;;22.00;99.90;;;;;;5074889;28;20029;-66
2021/04/27 04:56:29;;;;;;;41.75;32.00;;;21.90;99.90;;;;;;5074835;28;20021;-65
2021/04/27 04:58:56;;;;;;;33.10;29.60;;;21.90;99.90;;;;;;5074732;28;20043;-66
2021/04/27 05:01:24;;;;;;;31.17;28.25;;;21.80;99.90;;;;;;5074661;28;20016;-67
2021/04/27 05:03:52;;;;;;;32.97;28.40;;;21.80;99.90;;;;;;5073189;28;20446;-65
2021/04/27 05:06:20;;;;;;;62.90;33.50;;;21.70;99.90;;;;;;5074570;28;20109;-66
2021/04/27 05:08:50;;;;;;;30.67;27.52;;;21.60;99.90;;;;;;5074629;28;20064;-67
2021/04/27 05:11:17;;;;;;;33.40;29.02;;;21.60;99.90;;;;;;5074543;28;20056;-67
2021/04/27 05:13:45;;;;;;;30.75;27.42;;;21.30;99.90;;;;;;5074501;28;20029;-67
2021/04/27 05:16:13;;;;;;;28.52;25.85;;;21.30;99.90;;;;;;5074510;28;20051;-68
2021/04/27 05:18:41;;;;;;;35.75;29.40;;;21.20;99.90;;;;;;5074303;28;20021;-66
2021/04/27 05:21:08;;;;;;;40.05;28.75;;;21.20;99.90;;;;;;5074419;28;20016;-66
2021/04/27 05:23:36;;;;;;;27.05;24.48;;;21.10;99.90;;;;;;5074289;28;20047;-67
2021/04/27 05:26:04;;;;;;;25.25;22.65;;;21.00;99.90;;;;;;5074326;28;20021;-67
2021/04/27 05:28:31;;;;;;;27.25;24.42;;;21.00;99.90;;;;;;5074259;28;20020;-68
2021/04/27 05:30:59;;;;;;;37.25;27.55;;;20.80;99.90;;;;;;5074161;28;20036;-67
2021/04/27 05:33:26;;;;;;;44.35;26.95;;;20.90;99.90;;;;;;5074236;28;20444;-68
2021/04/27 05:35:53;;;;;;;24.02;21.48;;;20.90;99.90;;;;;;5074051;28;20020;-70
2021/04/27 05:38:21;;;;;;;22.27;20.25;;;20.90;99.90;;;;;;5073983;28;20051;-69
2021/04/27 05:40:48;;;;;;;22.90;20.90;;;20.70;99.90;;;;;;5073810;28;20082;-69
2021/04/27 05:43:16;;;;;;;23.10;20.00;;;20.80;99.90;;;;;;5073902;28;20377;-69
2021/04/27 05:45:44;;;;;;;20.27;18.27;;;20.70;99.90;;;;;;5073805;28;20354;-66
2021/04/27 05:48:12;;;;;;;19.98;18.08;;;20.60;99.90;;;;;;5073890;28;20075;-69
2021/04/27 05:50:40;;;;;;;21.92;19.45;;;20.50;99.90;;;;;;5073870;28;20035;-69
2021/04/27 05:53:07;;;;;;;22.27;19.98;;;20.50;99.90;;;;;;5073591;28;20103;-67
2021/04/27 05:55:37;;;;;;;21.02;18.83;;;20.40;99.90;;;;;;5072976;28;20020;-66
2021/04/27 05:58:04;;;;;;;18.52;16.92;;;20.40;99.90;;;;;;5073573;28;20031;-68
2021/04/27 06:00:32;;;;;;;18.30;16.63;;;20.40;99.90;;;;;;5073530;28;20025;-66
2021/04/27 06:02:59;;;;;;;18.85;16.85;;;20.30;99.90;;;;;;5073591;28;20103;-67
2021/04/27 06:05:26;;;;;;;18.00;16.45;;;20.10;99.90;;;;;;5073475;28;20044;-66
2021/04/27 06:07:54;;;;;;;17.63;16.15;;;20.10;99.90;;;;;;5073597;28;20028;-70
2021/04/27 06:10:21;;;;;;;18.17;16.63;;;20.00;99.90;;;;;;5073534;28;20130;-69
2021/04/27 06:12:49;;;;;;;17.35;15.65;;;20.00;99.90;;;;;;5073575;28;20032;-67
2021/04/27 06:15:19;;;;;;;42.15;20.40;;;19.90;99.90;;;;;;5073542;28;20508;-68
2021/04/27 06:17:47;;;;;;;25.90;17.67;;;19.90;99.90;;;;;;5073551;28;20443;-67
2021/04/27 06:20:15;;;;;;;21.17;15.73;;;19.80;99.90;;;;;;5072162;28;20063;-67
2021/04/27 06:22:42;;;;;;;20.00;16.73;;;19.80;99.90;;;;;;5073151;28;20039;-66
2021/04/27 06:25:10;;;;;;;18.98;14.80;;;19.80;99.90;;;;;;5073050;28;20020;-65
2021/04/27 06:27:39;;;;;;;18.40;16.48;;;19.70;99.90;;;;;;5072890;28;20063;-64
2021/04/27 06:30:08;;;;;;;55.17;21.88;;;19.50;99.90;;;;;;5072909;28;20484;-64
2021/04/27 06:32:36;;;;;;;36.63;18.77;;;19.50;99.90;;;;;;5072935;28;20052;-65
2021/04/27 06:35:05;;;;;;;17.00;15.45;;;19.40;99.90;;;;;;5072792;28;20024;-66
2021/04/27 06:37:32;;;;;;;18.73;16.83;;;19.40;99.90;;;;;;5072863;28;20112;-65
2021/04/27 06:40:00;;;;;;;19.42;17.40;;;19.30;99.90;;;;;;5072610;28;20048;-65
2021/04/27 06:42:27;;;;;;;23.20;18.52;;;19.30;99.90;;;;;;5072798;28;20012;-65
2021/04/27 06:44:54;;;;;;;18.80;17.05;;;19.20;99.90;;;;;;5072864;28;20031;-65
2021/04/27 06:47:22;;;;;;;18.13;16.75;;;19.10;99.90;;;;;;5072950;28;20035;-65
2021/04/27 06:49:50;;;;;;;16.98;15.52;;;19.10;99.90;;;;;;5072897;28;20020;-65
2021/04/27 06:52:17;;;;;;;18.05;16.60;;;19.00;99.90;;;;;;5072709;28;20028;-65
2021/04/27 06:54:44;;;;;;;18.90;17.40;;;18.90;99.90;;;;;;5072738;28;20116;-65
2021/04/27 06:57:12;;;;;;;18.30;16.70;;;18.90;99.90;;;;;;5072398;28;20506;-64
2021/04/27 06:59:39;;;;;;;17.05;15.75;;;18.80;99.90;;;;;;5072535;28;20017;-63
2021/04/27 07:02:07;;;;;;;16.90;15.60;;;18.80;99.90;;;;;;5072578;28;20099;-65
2021/04/27 07:04:35;;;;;;;18.02;16.50;;;18.70;99.90;;;;;;5072394;28;20565;-68
2021/04/27 07:07:04;;;;;;;17.13;16.00;;;18.60;99.90;;;;;;5075168;28;20020;-66
2021/04/27 07:09:32;;;;;;;18.20;16.75;;;18.50;99.90;;;;;;5076636;28;20552;-67
2021/04/27 07:12:00;;;;;;;18.17;16.98;;;18.40;99.90;;;;;;5076638;28;20063;-67
2021/04/27 07:14:28;;;;;;;18.65;17.55;;;18.40;99.90;;;;;;5076627;28;20028;-68
2021/04/27 07:16:55;;;;;;;19.40;18.20;;;18.30;99.90;;;;;;5076469;28;20024;-68
2021/04/27 07:19:24;;;;;;;19.77;18.38;;;18.20;99.90;;;;;;5076535;28;20028;-68
2021/04/27 07:21:54;;;;;;;19.85;18.65;;;18.20;99.90;;;;;;5076393;28;20023;-68
2021/04/27 07:24:21;;;;;;;;;;;18.10;99.90;;;;;;5076640;28;20108;-68
2021/04/27 07:26:49;;;;;;;21.08;19.55;;;18.00;99.90;;;;;;5074975;28;20018;-68
2021/04/27 07:29:17;;;;;;;21.15;19.90;;;18.00;99.90;;;;;;5076325;28;20016;-68
2021/04/27 07:31:45;;;;;;;20.95;19.60;;;17.90;99.90;;;;;;5076245;28;20481;-67
2021/04/27 07:34:13;;;;;;;21.58;20.00;;;17.80;99.90;;;;;;5076206;28;20021;-67
2021/04/27 07:36:41;;;;;;;21.70;20.30;;;17.70;99.90;;;;;;5076031;28;20051;-64
2021/04/27 07:39:10;;;;;;;24.58;22.73;;;17.70;99.90;;;;;;5075950;28;20041;-65
2021/04/27 07:41:38;;;;;;;22.73;21.42;;;17.80;99.90;;;;;;5076080;28;20409;-65
2021/04/27 07:44:06;;;;;;;23.50;21.88;;;17.70;99.90;;;;;;5076037;28;20028;-66
2021/04/27 07:46:34;;;;;;;23.45;21.85;;;17.60;99.90;;;;;;5075920;28;20504;-64
2021/04/27 07:49:03;;;;;;;23.40;22.00;;;17.50;99.90;;;;;;5076016;28;20031;-66
2021/04/27 07:51:31;;;;;;;23.73;22.02;;;17.50;99.90;;;;;;5075979;28;20154;-67
2021/04/27 07:53:58;;;;;;;25.10;23.27;;;17.40;99.90;;;;;;5075988;28;20016;-65
2021/04/27 07:56:31;;;;;;;25.27;23.70;;;17.40;99.90;;;;;;5074600;28;20449;-66
2021/04/27 07:59:03;;;;;;;24.83;23.23;;;17.30;99.90;;;;;;5075714;28;20349;-65
2021/04/27 08:01:37;;;;;;;25.90;24.10;;;17.20;99.90;;;;;;5075811;28;20074;-66
2021/04/27 08:04:04;;;;;;;26.70;24.60;;;17.20;99.90;;;;;;5075760;28;20152;-66
2021/04/27 08:06:32;;;;;;;26.05;24.15;;;17.10;99.90;;;;;;5075746;28;20052;-66
2021/04/27 08:09:00;;;;;;;27.85;25.85;;;17.10;99.90;;;;;;5075706;28;20055;-65
2021/04/27 08:11:27;;;;;;;27.50;25.73;;;17.00;99.90;;;;;;5075666;28;20425;-65
2021/04/27 08:13:55;;;;;;;27.65;26.02;;;17.00;99.90;;;;;;5075602;28;20020;-66
2021/04/27 08:16:22;;;;;;;27.10;25.33;;;17.00;99.90;;;;;;5075624;28;20039;-66
2021/04/27 08:18:50;;;;;;;27.92;25.85;;;16.90;99.90;;;;;;5074542;28;20070;-67
2021/04/27 08:21:17;;;;;;;26.38;24.48;;;16.90;99.90;;;;;;5075517;28;20017;-66
2021/04/27 08:23:45;;;;;;;26.23;24.52;;;16.90;99.90;;;;;;5075345;28;20029;-65
2021/04/27 08:26:13;;;;;;;27.20;25.40;;;16.80;99.90;;;;;;5075391;28;20028;-62
2021/04/27 08:28:41;;;;;;;29.25;27.45;;;16.90;99.90;;;;;;5075291;28;20385;-62
2021/04/27 08:31:09;;;;;;;30.13;28.13;;;17.00;99.90;;;;;;5075295;28;20020;-61
2021/04/27 08:33:38;;;;;;;30.95;28.95;;;17.10;99.90;;;;;;5075171;28;20166;-62
2021/04/27 08:36:06;;;;;;;30.90;29.00;;;17.10;99.90;;;;;;5075108;28;20166;-62
2021/04/27 08:38:33;;;;;;;30.38;28.58;;;17.20;99.90;;;;;;5075103;28;20024;-62
2021/04/27 08:41:02;;;;;;;30.83;28.77;;;17.10;99.90;;;;;;5074968;28;20024;-62
2021/04/27 08:43:30;;;;;;;31.00;28.98;;;17.10;99.90;;;;;;5074989;28;20069;-63
2021/04/27 08:45:57;;;;;;;31.00;29.20;;;17.10;99.90;;;;;;5074998;28;20021;-62
2021/04/27 08:48:25;;;;;;;32.08;30.17;;;17.10;99.90;;;;;;5074967;28;20476;-62
2021/04/27 08:50:53;;;;;;;31.98;29.98;;;17.10;99.90;;;;;;5074973;28;20037;-61
2021/04/27 08:53:21;;;;;;;32.85;30.90;;;17.00;99.90;;;;;;5074643;28;20063;-62
2021/04/27 08:55:49;;;;;;;32.45;30.35;;;16.90;99.90;;;;;;5074714;28;20028;-62
2021/04/27 08:58:17;;;;;;;33.53;31.42;;;17.00;99.90;;;;;;5074499;28;20082;-62
2021/04/27 09:00:46;;;;;;;32.90;30.80;;;16.90;99.90;;;;;;5074670;28;20020;-63
2021/04/27 09:03:16;;;;;;;34.85;32.33;;;16.90;99.90;;;;;;5074501;28;20036;-62
2021/04/27 09:05:44;;;;;;;35.00;32.75;;;16.90;99.90;;;;;;5074444;28;20032;-63
2021/04/27 09:08:12;;;;;;;35.95;33.50;;;16.80;99.90;;;;;;5074388;28;20028;-65
2021/04/27 09:10:44;;;;;;;35.85;33.45;;;16.60;99.90;;;;;;5074481;28;20024;-67
2021/04/27 09:13:17;;;;;;;36.42;33.88;;;16.60;99.90;;;;;;5074437;28;20604;-68
2021/04/27 09:15:47;;;;;;;37.30;34.88;;;16.50;99.90;;;;;;5074332;28;20035;-63
2021/04/27 09:18:32;;;;;;;40.08;37.30;;;16.50;99.90;;;;;;5074292;28;20028;-65
2021/04/27 09:21:04;;;;;;;41.33;38.38;;;16.40;99.90;;;;;;5074264;28;20028;-66
2021/04/27 09:23:34;;;;;;;40.45;37.75;;;16.40;99.90;;;;;;5074277;28;20473;-66
2021/04/27 09:26:19;;;;;;;40.55;37.47;;;16.40;99.90;;;;;;5074061;28;20370;-67
2021/04/27 09:28:49;;;;;;;41.28;38.28;;;16.40;99.90;;;;;;5073966;28;20024;-67
2021/04/27 09:31:37;;;;;;;40.78;38.03;;;16.40;99.90;;;;;;5074045;28;20489;-67
2021/04/27 09:34:28;;;;;;;40.63;37.72;;;16.40;99.90;;;;;;5073831;28;20423;-67
2021/04/27 09:37:00;;;;;;;41.00;37.97;;;16.30;99.90;;;;;;5073906;28;20554;-68
2021/04/27 09:39:43;;;;;;;41.92;38.85;;;16.30;99.90;;;;;;5073773;28;20074;-68
2021/04/27 09:42:19;;;;;;;41.17;38.30;;;16.20;99.90;;;;;;5073945;28;20112;-67
2021/04/27 09:44:52;;;;;;;38.80;36.20;;;16.20;99.90;;;;;;5073924;28;20388;-66
2021/04/27 09:50:42;;;;;;;35.38;33.17;;;16.10;99.90;;;;;;5073877;28;20531;-68
2021/04/27 09:53:09;;;;;;;39.30;36.47;;;16.10;99.90;;;;;;5073682;28;20028;-68
2021/04/27 09:55:37;;;;;;;38.72;36.03;;;16.10;99.90;;;;;;5073813;28;20027;-69
2021/04/27 09:58:04;;;;;;;38.63;36.08;;;16.10;99.90;;;;;;5073672;28;20020;-69
2021/04/27 10:00:40;;;;;;;38.80;36.30;;;16.00;99.90;;;;;;5073594;28;20031;-68
2021/04/27 10:03:12;;;;;;;37.40;34.83;;;16.00;99.90;;;;;;5073333;28;20040;-68
2021/04/27 10:05:42;;;;;;;38.65;36.03;;;16.00;99.90;;;;;;5073416;28;20020;-68
2021/04/27 10:08:13;;;;;;;36.60;34.20;;;16.00;99.90;;;;;;5073180;28;20263;-67
2021/04/27 10:10:41;;;;;;;37.05;34.45;;;16.00;99.90;;;;;;5073299;28;20582;-68
2021/04/27 10:13:10;;;;;;;38.80;36.08;;;16.00;99.90;;;;;;5073294;28;20520;-68
2021/04/27 10:15:41;;;;;;;36.15;33.75;;;16.00;99.90;;;;;;5073311;28;20017;-68
2021/04/27 10:18:11;;;;;;;37.22;34.58;;;16.00;99.90;;;;;;5073166;28;20028;-68
2021/04/27 10:20:39;;;;;;;36.35;33.95;;;15.90;99.90;;;;;;5073166;28;20031;-68
2021/04/27 10:23:11;;;;;;;36.13;33.65;;;15.90;99.90;;;;;;5072934;28;20477;-66
2021/04/27 10:25:39;;;;;;;35.78;32.97;;;15.90;99.90;;;;;;5073141;28;20477;-66
2021/04/27 10:28:09;;;;;;;34.08;31.77;;;15.80;99.90;;;;;;5073113;28;20025;-68
2021/04/27 10:30:47;;;;;;;35.78;33.38;;;15.80;99.90;;;;;;5073106;28;20477;-67
2021/04/27 10:33:18;;;;;;;35.85;33.35;;;15.80;99.90;;;;;;5072956;28;20044;-67
2021/04/27 10:36:03;;;;;;;36.65;34.05;;;15.70;99.90;;;;;;5072945;28;20104;-68
2021/04/27 10:38:54;;;;;;;35.88;33.47;;;15.70;99.90;;;;;;5072678;28;20111;-67
2021/04/27 10:41:27;;;;;;;;;;;15.70;99.90;;;;;;5072877;28;20025;-67
2021/04/27 10:44:01;;;;;;;35.85;33.45;;;15.70;99.90;;;;;;5072848;28;20410;-69
2021/04/27 10:46:35;;;;;;;38.67;35.60;;;15.70;99.90;;;;;;5073154;28;20040;-67
2021/04/27 10:49:23;;;;;;;37.85;35.22;;;15.70;99.90;;;;;;5072927;28;20054;-68
2021/04/27 10:51:52;;;;;;;38.38;35.88;;;15.70;99.90;;;;;;5072310;28;20027;-68
2021/04/27 10:54:28;;;;;;;39.33;36.47;;;15.70;99.90;;;;;;5072904;28;20020;-68
2021/04/27 10:57:01;;;;;;;39.92;37.22;;;15.70;99.90;;;;;;5072647;28;20075;-68
2021/04/27 10:59:31;;;;;;;39.00;36.50;;;15.80;99.90;;;;;;5072972;28;20038;-68
2021/04/27 11:02:19;;;;;;;40.58;37.88;;;16.00;99.90;;;;;;5072675;28;20044;-69
2021/04/27 11:04:48;;;;;;;37.95;35.40;;;16.10;99.90;;;;;;5072615;28;20035;-67
2021/04/27 11:07:22;;;;;;;38.13;35.60;;;16.10;99.90;;;;;;5072803;28;20085;-68
2021/04/27 11:10:03;;;;;;;38.28;35.88;;;16.10;99.90;;;;;;5072586;28;20032;-68
2021/04/27 11:12:34;;;;;;;39.85;37.13;;;16.20;99.90;;;;;;5072596;28;20028;-69
2021/04/27 11:15:10;;;;;;;37.08;34.78;;;16.20;99.90;;;;;;5073181;28;20025;-68
2021/04/27 11:17:40;;;;;;;38.45;36.10;;;16.20;99.90;;;;;;5072920;28;20028;-67
2021/04/27 11:20:10;;;;;;;39.53;36.90;;;16.20;99.90;;;;;;5072483;28;20481;-68
2021/04/27 11:22:50;;;;;;;38.05;35.45;;;16.20;99.90;;;;;;5072762;28;20024;-68
2021/04/27 11:25:37;;;;;;;37.90;35.20;;;16.10;99.90;;;;;;5072669;28;20024;-68
2021/04/27 11:28:16;;;;;;;38.80;36.40;;;16.00;99.90;;;;;;5072548;28;20050;-68
2021/04/27 11:30:43;;;;;;;38.30;35.67;;;16.00;99.90;;;;;;5072352;28;20029;-68
2021/04/27 11:33:12;;;;;;;39.20;36.72;;;16.00;99.90;;;;;;5072563;28;20107;-67
2021/04/27 11:35:43;;;;;;;39.53;37.05;;;16.00;99.90;;;;;;5072429;28;20390;-67
2021/04/27 11:38:11;;;;;;;39.50;37.03;;;15.90;99.90;;;;;;5072389;28;20048;-68
2021/04/27 11:40:41;;;;;;;40.83;38.42;;;15.80;99.90;;;;;;5072267;28;20083;-69
2021/04/27 11:43:10;;;;;;;42.38;39.90;;;15.80;99.90;;;;;;5072445;28;20028;-68
2021/04/27 11:45:48;;;;;;;40.53;38.05;;;15.70;99.90;;;;;;5071203;28;20035;-68
2021/04/27 11:48:18;;;;;;;41.63;38.92;;;15.70;99.90;;;;;;5072377;28;20384;-67
2021/04/27 11:54:08;;;;;;;42.65;40.05;;;15.60;99.90;;;;;;5074833;28;20074;-68
2021/04/27 11:56:51;;;;;;;44.53;41.83;;;15.60;99.90;;;;;;5075849;28;20064;-68
2021/04/27 11:59:21;;;;;;;47.92;44.72;;;15.60;99.90;;;;;;5075806;28;20036;-67
2021/04/27 12:01:48;;;;;;;43.63;40.60;;;15.70;99.90;;;;;;5075979;28;20016;-67
2021/04/27 12:04:16;;;;;;;43.08;40.28;;;15.80;99.90;;;;;;5075747;28;20028;-66
2021/04/27 12:07:01;;;;;;;44.33;41.22;;;15.90;99.90;;;;;;5075873;28;20030;-67
2021/04/27 12:09:43;;;;;;;43.83;40.95;;;16.00;99.90;;;;;;5075690;28;20108;-66
2021/04/27 12:12:13;;;;;;;45.03;42.08;;;16.10;99.90;;;;;;5075673;28;20109;-67
2021/04/27 12:15:00;;;;;;;43.85;40.92;;;16.10;99.90;;;;;;5075726;28;20017;-67
2021/04/27 12:17:31;;;;;;;47.10;44.00;;;16.10;99.90;;;;;;5075400;28;20028;-68
2021/04/27 12:20:13;;;;;;;45.63;42.55;;;16.10;99.90;;;;;;5075526;28;20070;-67
2021/04/27 12:22:46;;;;;;;44.30;40.90;;;16.10;99.90;;;;;;5075514;28;20028;-66
2021/04/27 12:25:28;;;;;;;45.53;42.63;;;16.10;99.90;;;;;;5075454;28;20473;-66
2021/04/27 12:28:06;;;;;;;44.67;41.38;;;16.00;99.90;;;;;;5075466;28;20024;-67
2021/04/27 12:30:36;;;;;;;43.45;40.75;;;16.00;99.90;;;;;;5075433;28;20470;-66
2021/04/27 12:33:05;;;;;;;46.22;43.30;;;15.90;99.90;;;;;;5075212;28;20020;-67
2021/04/27 12:35:35;;;;;;;46.35;43.53;;;15.90;99.90;;;;;;5075125;28;20036;-66
2021/04/27 12:38:09;;;;;;;45.58;42.70;;;15.80;99.90;;;;;;5073843;28;20020;-67
2021/04/27 12:40:41;;;;;;;44.92;42.05;;;15.80;99.90;;;;;;5075190;28;20041;-68
2021/04/27 12:43:13;;;;;;;44.28;41.33;;;15.70;99.90;;;;;;5075191;28;20046;-68
2021/04/27 12:45:59;;;;;;;50.28;46.88;;;15.70;99.90;;;;;;5074983;28;20031;-68
2021/04/27 12:48:31;;;;;;;49.72;46.83;;;15.60;99.90;;;;;;5075287;28;20028;-66